sensor_id;sensor_type;location;lat;lon;timestamp;P1;durP1;ratioP1;P2;durP2;ratioP2
77453;SDS011;66538;53.150;18.160;2023-07-29T00:00:09;7.10;;;3.50;;
77453;SDS011;66538;53.150;18.160;2023-07-29T00:03:01;5.60;;;2.90;;
77453;SDS011;66538;53.150;18.160;2023-07-29T00:05:27;7.00;;;4.10;;
77453;SDS011;66538;53.150;18.160;2023-07-29T00:07:54;5.50;;;3.60;;
77453;SDS011;66538;53.150;18.160;2023-07-29T00:10:20;5.70;;;3.60;;
77453;SDS011;66538;53.150;18.160;2023-07-29T00:12:47;6.30;;;3.50;;
77453;SDS011;66538;53.150;18.160;2023-07-29T00:15:14;7.30;;;3.80;;
77453;SDS011;66538;53.150;18.160;2023-07-29T00:17:40;5.50;;;3.60;;
77453;SDS011;66538;53.150;18.160;2023-07-29T00:20:07;7.30;;;4.40;;
77453;SDS011;66538;53.150;18.160;2023-07-29T00:22:34;6.30;;;3.90;;
77453;SDS011;66538;53.150;18.160;2023-07-29T00:25:01;8.50;;;4.40;;
77453;SDS011;66538;53.150;18.160;2023-07-29T00:27:27;7.50;;;4.90;;
77453;SDS011;66538;53.150;18.160;2023-07-29T00:29:55;7.50;;;4.80;;
77453;SDS011;66538;53.150;18.160;2023-07-29T00:32:21;7.00;;;4.10;;
77453;SDS011;66538;53.150;18.160;2023-07-29T00:34:48;7.10;;;4.40;;
77453;SDS011;66538;53.150;18.160;2023-07-29T00:37:15;7.80;;;5.00;;
77453;SDS011;66538;53.150;18.160;2023-07-29T00:39:41;6.20;;;4.10;;
77453;SDS011;66538;53.150;18.160;2023-07-29T00:42:09;7.60;;;5.40;;
77453;SDS011;66538;53.150;18.160;2023-07-29T00:44:35;7.80;;;5.20;;
77453;SDS011;66538;53.150;18.160;2023-07-29T00:47:02;7.40;;;4.60;;
77453;SDS011;66538;53.150;18.160;2023-07-29T00:49:31;8.80;;;5.10;;
77453;SDS011;66538;53.150;18.160;2023-07-29T00:51:58;8.10;;;5.10;;
77453;SDS011;66538;53.150;18.160;2023-07-29T00:54:25;5.70;;;3.20;;
77453;SDS011;66538;53.150;18.160;2023-07-29T00:56:52;6.00;;;3.90;;
77453;SDS011;66538;53.150;18.160;2023-07-29T00:59:18;6.60;;;3.80;;
77453;SDS011;66538;53.150;18.160;2023-07-29T01:01:45;6.80;;;4.20;;
77453;SDS011;66538;53.150;18.160;2023-07-29T01:04:12;7.70;;;4.30;;
77453;SDS011;66538;53.150;18.160;2023-07-29T01:06:45;7.20;;;5.10;;
77453;SDS011;66538;53.150;18.160;2023-07-29T01:09:18;5.90;;;3.90;;
77453;SDS011;66538;53.150;18.160;2023-07-29T01:12:08;7.20;;;4.10;;
77453;SDS011;66538;53.150;18.160;2023-07-29T01:14:45;6.20;;;3.80;;
77453;SDS011;66538;53.150;18.160;2023-07-29T01:17:22;6.10;;;3.80;;
77453;SDS011;66538;53.150;18.160;2023-07-29T01:20:01;5.60;;;3.30;;
77453;SDS011;66538;53.150;18.160;2023-07-29T01:22:37;6.40;;;3.90;;
77453;SDS011;66538;53.150;18.160;2023-07-29T01:25:04;5.50;;;3.50;;
77453;SDS011;66538;53.150;18.160;2023-07-29T01:27:31;6.50;;;4.20;;
77453;SDS011;66538;53.150;18.160;2023-07-29T01:29:59;5.70;;;4.10;;
77453;SDS011;66538;53.150;18.160;2023-07-29T01:32:43;6.00;;;3.70;;
77453;SDS011;66538;53.150;18.160;2023-07-29T01:35:19;6.70;;;3.90;;
77453;SDS011;66538;53.150;18.160;2023-07-29T01:38:04;6.50;;;4.00;;
77453;SDS011;66538;53.150;18.160;2023-07-29T01:40:33;7.80;;;4.70;;
77453;SDS011;66538;53.150;18.160;2023-07-29T01:43:00;6.10;;;4.10;;
77453;SDS011;66538;53.150;18.160;2023-07-29T01:45:27;7.60;;;4.60;;
77453;SDS011;66538;53.150;18.160;2023-07-29T01:47:58;5.60;;;3.40;;
77453;SDS011;66538;53.150;18.160;2023-07-29T01:50:24;6.20;;;3.90;;
77453;SDS011;66538;53.150;18.160;2023-07-29T01:52:51;6.20;;;3.80;;
77453;SDS011;66538;53.150;18.160;2023-07-29T01:55:17;6.40;;;4.10;;
77453;SDS011;66538;53.150;18.160;2023-07-29T01:57:44;6.00;;;3.90;;
77453;SDS011;66538;53.150;18.160;2023-07-29T02:00:11;5.90;;;3.80;;
77453;SDS011;66538;53.150;18.160;2023-07-29T02:02:41;6.20;;;3.80;;
77453;SDS011;66538;53.150;18.160;2023-07-29T02:05:08;5.50;;;3.50;;
77453;SDS011;66538;53.150;18.160;2023-07-29T02:07:34;6.40;;;4.00;;
77453;SDS011;66538;53.150;18.160;2023-07-29T02:10:01;6.20;;;3.70;;
77453;SDS011;66538;53.150;18.160;2023-07-29T02:12:28;6.60;;;4.20;;
77453;SDS011;66538;53.150;18.160;2023-07-29T02:14:54;5.80;;;3.60;;
77453;SDS011;66538;53.150;18.160;2023-07-29T02:17:21;6.70;;;4.20;;
77453;SDS011;66538;53.150;18.160;2023-07-29T02:19:48;6.20;;;3.60;;
77453;SDS011;66538;53.150;18.160;2023-07-29T02:22:17;6.00;;;3.60;;
77453;SDS011;66538;53.150;18.160;2023-07-29T02:24:44;6.40;;;4.00;;
77453;SDS011;66538;53.150;18.160;2023-07-29T02:27:11;6.70;;;4.20;;
77453;SDS011;66538;53.150;18.160;2023-07-29T02:29:38;6.10;;;3.80;;
77453;SDS011;66538;53.150;18.160;2023-07-29T02:32:04;6.00;;;4.20;;
77453;SDS011;66538;53.150;18.160;2023-07-29T02:34:31;7.10;;;4.00;;
77453;SDS011;66538;53.150;18.160;2023-07-29T02:36:58;6.00;;;3.70;;
77453;SDS011;66538;53.150;18.160;2023-07-29T02:39:25;6.70;;;4.10;;
77453;SDS011;66538;53.150;18.160;2023-07-29T02:41:52;7.30;;;4.00;;
77453;SDS011;66538;53.150;18.160;2023-07-29T02:44:19;7.00;;;3.70;;
77453;SDS011;66538;53.150;18.160;2023-07-29T02:46:46;6.90;;;4.10;;
77453;SDS011;66538;53.150;18.160;2023-07-29T02:49:13;7.10;;;4.20;;
77453;SDS011;66538;53.150;18.160;2023-07-29T02:51:39;6.70;;;4.40;;
77453;SDS011;66538;53.150;18.160;2023-07-29T02:54:06;6.80;;;3.90;;
77453;SDS011;66538;53.150;18.160;2023-07-29T02:56:33;7.20;;;4.00;;
77453;SDS011;66538;53.150;18.160;2023-07-29T02:58:59;5.80;;;3.70;;
77453;SDS011;66538;53.150;18.160;2023-07-29T03:01:27;6.30;;;4.20;;
77453;SDS011;66538;53.150;18.160;2023-07-29T03:03:53;6.20;;;3.20;;
77453;SDS011;66538;53.150;18.160;2023-07-29T03:06:20;6.30;;;3.60;;
77453;SDS011;66538;53.150;18.160;2023-07-29T03:08:46;7.90;;;4.20;;
77453;SDS011;66538;53.150;18.160;2023-07-29T03:11:13;6.40;;;3.80;;
77453;SDS011;66538;53.150;18.160;2023-07-29T03:16:09;6.70;;;3.80;;
77453;SDS011;66538;53.150;18.160;2023-07-29T03:18:38;5.80;;;3.60;;
77453;SDS011;66538;53.150;18.160;2023-07-29T03:21:05;7.20;;;4.00;;
77453;SDS011;66538;53.150;18.160;2023-07-29T03:23:32;9.40;;;6.60;;
77453;SDS011;66538;53.150;18.160;2023-07-29T03:26:00;8.10;;;5.60;;
77453;SDS011;66538;53.150;18.160;2023-07-29T03:28:32;7.10;;;4.00;;
77453;SDS011;66538;53.150;18.160;2023-07-29T03:30:59;7.60;;;4.20;;
77453;SDS011;66538;53.150;18.160;2023-07-29T03:33:26;7.10;;;4.20;;
77453;SDS011;66538;53.150;18.160;2023-07-29T03:35:53;5.80;;;4.10;;
77453;SDS011;66538;53.150;18.160;2023-07-29T03:38:19;8.40;;;4.80;;
77453;SDS011;66538;53.150;18.160;2023-07-29T03:40:46;7.90;;;5.00;;
77453;SDS011;66538;53.150;18.160;2023-07-29T03:43:14;8.00;;;5.00;;
77453;SDS011;66538;53.150;18.160;2023-07-29T03:45:40;8.70;;;4.40;;
77453;SDS011;66538;53.150;18.160;2023-07-29T03:48:07;8.60;;;5.00;;
77453;SDS011;66538;53.150;18.160;2023-07-29T03:50:35;7.20;;;5.20;;
77453;SDS011;66538;53.150;18.160;2023-07-29T03:53:02;8.40;;;4.80;;
77453;SDS011;66538;53.150;18.160;2023-07-29T03:55:30;7.10;;;4.90;;
77453;SDS011;66538;53.150;18.160;2023-07-29T03:57:58;7.20;;;4.40;;
77453;SDS011;66538;53.150;18.160;2023-07-29T04:00:26;7.50;;;4.60;;
77453;SDS011;66538;53.150;18.160;2023-07-29T04:02:53;6.90;;;4.70;;
77453;SDS011;66538;53.150;18.160;2023-07-29T04:05:20;7.20;;;4.80;;
77453;SDS011;66538;53.150;18.160;2023-07-29T04:07:48;7.20;;;5.10;;
77453;SDS011;66538;53.150;18.160;2023-07-29T04:10:14;9.10;;;5.70;;
77453;SDS011;66538;53.150;18.160;2023-07-29T04:12:42;7.30;;;4.50;;
77453;SDS011;66538;53.150;18.160;2023-07-29T04:15:09;8.20;;;5.80;;
77453;SDS011;66538;53.150;18.160;2023-07-29T04:17:36;9.30;;;5.60;;
77453;SDS011;66538;53.150;18.160;2023-07-29T04:20:03;9.10;;;6.40;;
77453;SDS011;66538;53.150;18.160;2023-07-29T04:22:33;9.70;;;6.10;;
77453;SDS011;66538;53.150;18.160;2023-07-29T04:25:00;9.40;;;6.40;;
77453;SDS011;66538;53.150;18.160;2023-07-29T04:27:26;10.70;;;7.10;;
77453;SDS011;66538;53.150;18.160;2023-07-29T04:29:53;12.00;;;7.40;;
77453;SDS011;66538;53.150;18.160;2023-07-29T04:32:20;10.30;;;6.50;;
77453;SDS011;66538;53.150;18.160;2023-07-29T04:34:46;11.00;;;7.30;;
77453;SDS011;66538;53.150;18.160;2023-07-29T04:37:13;12.70;;;8.00;;
77453;SDS011;66538;53.150;18.160;2023-07-29T04:39:40;12.90;;;9.00;;
77453;SDS011;66538;53.150;18.160;2023-07-29T04:42:06;12.90;;;9.30;;
77453;SDS011;66538;53.150;18.160;2023-07-29T04:44:33;12.70;;;9.30;;
77453;SDS011;66538;53.150;18.160;2023-07-29T04:46:59;12.60;;;8.50;;
77453;SDS011;66538;53.150;18.160;2023-07-29T04:49:26;12.60;;;9.80;;
77453;SDS011;66538;53.150;18.160;2023-07-29T04:51:52;18.70;;;14.30;;
77453;SDS011;66538;53.150;18.160;2023-07-29T04:54:19;17.30;;;13.20;;
77453;SDS011;66538;53.150;18.160;2023-07-29T04:56:47;15.10;;;11.30;;
77453;SDS011;66538;53.150;18.160;2023-07-29T04:59:13;13.30;;;9.50;;
77453;SDS011;66538;53.150;18.160;2023-07-29T05:01:40;14.90;;;9.60;;
77453;SDS011;66538;53.150;18.160;2023-07-29T05:04:08;15.90;;;10.40;;
77453;SDS011;66538;53.150;18.160;2023-07-29T05:06:36;15.00;;;9.60;;
77453;SDS011;66538;53.150;18.160;2023-07-29T05:09:16;13.90;;;9.00;;
77453;SDS011;66538;53.150;18.160;2023-07-29T05:11:44;16.10;;;9.60;;
77453;SDS011;66538;53.150;18.160;2023-07-29T05:14:15;15.50;;;9.20;;
77453;SDS011;66538;53.150;18.160;2023-07-29T05:16:44;12.50;;;9.10;;
77453;SDS011;66538;53.150;18.160;2023-07-29T05:19:11;11.60;;;8.60;;
77453;SDS011;66538;53.150;18.160;2023-07-29T05:21:39;12.60;;;8.30;;
77453;SDS011;66538;53.150;18.160;2023-07-29T05:24:06;12.30;;;8.10;;
77453;SDS011;66538;53.150;18.160;2023-07-29T05:26:32;10.50;;;7.80;;
77453;SDS011;66538;53.150;18.160;2023-07-29T05:28:59;22.40;;;10.00;;
77453;SDS011;66538;53.150;18.160;2023-07-29T05:31:26;16.10;;;10.20;;
77453;SDS011;66538;53.150;18.160;2023-07-29T05:33:52;14.20;;;9.80;;
77453;SDS011;66538;53.150;18.160;2023-07-29T05:36:19;13.70;;;10.00;;
77453;SDS011;66538;53.150;18.160;2023-07-29T05:38:45;15.70;;;11.30;;
77453;SDS011;66538;53.150;18.160;2023-07-29T05:41:12;13.70;;;9.70;;
77453;SDS011;66538;53.150;18.160;2023-07-29T05:43:39;13.40;;;10.00;;
77453;SDS011;66538;53.150;18.160;2023-07-29T05:46:06;16.40;;;12.90;;
77453;SDS011;66538;53.150;18.160;2023-07-29T05:48:33;21.00;;;14.50;;
77453;SDS011;66538;53.150;18.160;2023-07-29T05:51:00;16.80;;;10.90;;
77453;SDS011;66538;53.150;18.160;2023-07-29T05:53:27;14.90;;;11.20;;
77453;SDS011;66538;53.150;18.160;2023-07-29T05:55:53;9.90;;;6.80;;
77453;SDS011;66538;53.150;18.160;2023-07-29T05:58:20;7.70;;;5.50;;
77453;SDS011;66538;53.150;18.160;2023-07-29T06:00:47;9.80;;;6.90;;
77453;SDS011;66538;53.150;18.160;2023-07-29T06:03:14;9.80;;;6.60;;
77453;SDS011;66538;53.150;18.160;2023-07-29T06:05:41;8.40;;;6.00;;
77453;SDS011;66538;53.150;18.160;2023-07-29T06:08:08;9.80;;;6.10;;
77453;SDS011;66538;53.150;18.160;2023-07-29T06:10:35;10.20;;;6.40;;
77453;SDS011;66538;53.150;18.160;2023-07-29T06:13:02;8.40;;;7.00;;
77453;SDS011;66538;53.150;18.160;2023-07-29T06:15:29;8.60;;;6.40;;
77453;SDS011;66538;53.150;18.160;2023-07-29T06:17:55;8.00;;;5.40;;
77453;SDS011;66538;53.150;18.160;2023-07-29T06:20:22;9.40;;;5.80;;
77453;SDS011;66538;53.150;18.160;2023-07-29T06:22:49;8.80;;;5.40;;
77453;SDS011;66538;53.150;18.160;2023-07-29T06:25:15;6.80;;;5.50;;
77453;SDS011;66538;53.150;18.160;2023-07-29T06:27:42;7.10;;;5.90;;
77453;SDS011;66538;53.150;18.160;2023-07-29T06:30:09;7.10;;;4.80;;
77453;SDS011;66538;53.150;18.160;2023-07-29T06:32:35;6.80;;;5.00;;
77453;SDS011;66538;53.150;18.160;2023-07-29T06:35:02;6.50;;;4.90;;
77453;SDS011;66538;53.150;18.160;2023-07-29T06:37:29;7.40;;;5.10;;
77453;SDS011;66538;53.150;18.160;2023-07-29T06:39:55;6.60;;;4.90;;
77453;SDS011;66538;53.150;18.160;2023-07-29T06:42:22;7.90;;;5.50;;
77453;SDS011;66538;53.150;18.160;2023-07-29T06:44:48;7.30;;;4.90;;
77453;SDS011;66538;53.150;18.160;2023-07-29T06:47:15;7.20;;;4.30;;
77453;SDS011;66538;53.150;18.160;2023-07-29T06:49:42;5.90;;;4.30;;
77453;SDS011;66538;53.150;18.160;2023-07-29T06:52:08;6.50;;;4.90;;
77453;SDS011;66538;53.150;18.160;2023-07-29T06:54:35;6.10;;;4.30;;
77453;SDS011;66538;53.150;18.160;2023-07-29T06:57:01;6.10;;;4.20;;
77453;SDS011;66538;53.150;18.160;2023-07-29T06:59:28;6.80;;;3.60;;
77453;SDS011;66538;53.150;18.160;2023-07-29T07:01:55;6.90;;;4.50;;
77453;SDS011;66538;53.150;18.160;2023-07-29T07:04:21;5.80;;;4.00;;
77453;SDS011;66538;53.150;18.160;2023-07-29T07:06:48;5.90;;;4.00;;
77453;SDS011;66538;53.150;18.160;2023-07-29T07:09:14;6.80;;;4.00;;
77453;SDS011;66538;53.150;18.160;2023-07-29T07:11:41;6.70;;;4.20;;
77453;SDS011;66538;53.150;18.160;2023-07-29T07:14:07;6.20;;;4.30;;
77453;SDS011;66538;53.150;18.160;2023-07-29T07:16:34;5.70;;;3.80;;
77453;SDS011;66538;53.150;18.160;2023-07-29T07:19:03;5.80;;;3.90;;
77453;SDS011;66538;53.150;18.160;2023-07-29T07:21:29;5.60;;;3.60;;
77453;SDS011;66538;53.150;18.160;2023-07-29T07:23:56;5.10;;;3.20;;
77453;SDS011;66538;53.150;18.160;2023-07-29T07:26:22;5.70;;;3.40;;
77453;SDS011;66538;53.150;18.160;2023-07-29T07:28:49;6.80;;;3.20;;
77453;SDS011;66538;53.150;18.160;2023-07-29T07:31:17;4.80;;;3.20;;
77453;SDS011;66538;53.150;18.160;2023-07-29T07:33:44;4.90;;;3.50;;
77453;SDS011;66538;53.150;18.160;2023-07-29T07:36:11;4.70;;;3.10;;
77453;SDS011;66538;53.150;18.160;2023-07-29T07:38:37;4.60;;;3.30;;
77453;SDS011;66538;53.150;18.160;2023-07-29T07:41:04;4.00;;;3.00;;
77453;SDS011;66538;53.150;18.160;2023-07-29T07:43:30;4.70;;;3.20;;
77453;SDS011;66538;53.150;18.160;2023-07-29T07:45:58;4.70;;;3.00;;
77453;SDS011;66538;53.150;18.160;2023-07-29T07:48:26;5.20;;;3.10;;
77453;SDS011;66538;53.150;18.160;2023-07-29T07:50:53;4.80;;;3.10;;
77453;SDS011;66538;53.150;18.160;2023-07-29T07:53:20;5.60;;;3.10;;
77453;SDS011;66538;53.150;18.160;2023-07-29T07:55:46;4.30;;;2.90;;
77453;SDS011;66538;53.150;18.160;2023-07-29T07:58:13;4.70;;;3.10;;
77453;SDS011;66538;53.150;18.160;2023-07-29T08:00:40;3.80;;;2.60;;
77453;SDS011;66538;53.150;18.160;2023-07-29T08:03:06;5.20;;;2.70;;
77453;SDS011;66538;53.150;18.160;2023-07-29T08:05:33;4.40;;;2.60;;
77453;SDS011;66538;53.150;18.160;2023-07-29T08:08:00;3.80;;;2.40;;
77453;SDS011;66538;53.150;18.160;2023-07-29T08:10:26;4.70;;;2.50;;
77453;SDS011;66538;53.150;18.160;2023-07-29T08:12:53;3.90;;;2.10;;
77453;SDS011;66538;53.150;18.160;2023-07-29T08:15:20;3.40;;;2.30;;
77453;SDS011;66538;53.150;18.160;2023-07-29T08:17:46;3.30;;;2.00;;
77453;SDS011;66538;53.150;18.160;2023-07-29T08:20:13;3.60;;;2.10;;
77453;SDS011;66538;53.150;18.160;2023-07-29T08:22:39;4.30;;;2.00;;
77453;SDS011;66538;53.150;18.160;2023-07-29T08:25:06;3.80;;;2.20;;
77453;SDS011;66538;53.150;18.160;2023-07-29T08:27:33;3.60;;;2.10;;
77453;SDS011;66538;53.150;18.160;2023-07-29T08:30:00;3.30;;;1.90;;
77453;SDS011;66538;53.150;18.160;2023-07-29T08:32:27;3.40;;;2.00;;
77453;SDS011;66538;53.150;18.160;2023-07-29T08:34:54;4.80;;;2.00;;
77453;SDS011;66538;53.150;18.160;2023-07-29T08:37:20;3.50;;;1.90;;
77453;SDS011;66538;53.150;18.160;2023-07-29T08:39:47;3.70;;;2.30;;
77453;SDS011;66538;53.150;18.160;2023-07-29T08:42:13;3.70;;;2.10;;
77453;SDS011;66538;53.150;18.160;2023-07-29T08:44:45;4.90;;;2.00;;
77453;SDS011;66538;53.150;18.160;2023-07-29T08:47:14;3.30;;;1.90;;
77453;SDS011;66538;53.150;18.160;2023-07-29T08:49:40;3.60;;;1.90;;
77453;SDS011;66538;53.150;18.160;2023-07-29T08:52:08;3.20;;;1.70;;
77453;SDS011;66538;53.150;18.160;2023-07-29T08:54:36;3.80;;;1.50;;
77453;SDS011;66538;53.150;18.160;2023-07-29T08:57:03;5.10;;;2.20;;
77453;SDS011;66538;53.150;18.160;2023-07-29T08:59:31;3.50;;;1.90;;
77453;SDS011;66538;53.150;18.160;2023-07-29T09:01:59;4.80;;;2.20;;
77453;SDS011;66538;53.150;18.160;2023-07-29T09:04:26;3.30;;;1.80;;
77453;SDS011;66538;53.150;18.160;2023-07-29T09:06:52;4.50;;;2.00;;
77453;SDS011;66538;53.150;18.160;2023-07-29T09:09:20;4.70;;;2.10;;
77453;SDS011;66538;53.150;18.160;2023-07-29T09:11:48;5.70;;;2.00;;
77453;SDS011;66538;53.150;18.160;2023-07-29T09:14:16;4.50;;;2.20;;
77453;SDS011;66538;53.150;18.160;2023-07-29T09:16:44;4.40;;;2.20;;
77453;SDS011;66538;53.150;18.160;2023-07-29T09:19:12;4.30;;;2.00;;
77453;SDS011;66538;53.150;18.160;2023-07-29T09:21:39;4.50;;;1.80;;
77453;SDS011;66538;53.150;18.160;2023-07-29T09:24:07;4.50;;;1.90;;
77453;SDS011;66538;53.150;18.160;2023-07-29T09:26:36;4.00;;;1.60;;
77453;SDS011;66538;53.150;18.160;2023-07-29T09:29:04;3.50;;;1.50;;
77453;SDS011;66538;53.150;18.160;2023-07-29T09:31:31;4.60;;;1.80;;
77453;SDS011;66538;53.150;18.160;2023-07-29T09:33:59;5.90;;;2.30;;
77453;SDS011;66538;53.150;18.160;2023-07-29T09:36:27;3.90;;;1.90;;
77453;SDS011;66538;53.150;18.160;2023-07-29T09:38:57;3.50;;;1.60;;
77453;SDS011;66538;53.150;18.160;2023-07-29T09:41:25;4.80;;;1.60;;
77453;SDS011;66538;53.150;18.160;2023-07-29T09:43:57;3.80;;;1.70;;
77453;SDS011;66538;53.150;18.160;2023-07-29T09:46:25;3.40;;;1.50;;
77453;SDS011;66538;53.150;18.160;2023-07-29T09:49:01;3.50;;;1.50;;
77453;SDS011;66538;53.150;18.160;2023-07-29T09:51:29;4.10;;;2.10;;
77453;SDS011;66538;53.150;18.160;2023-07-29T09:53:56;3.00;;;1.60;;
77453;SDS011;66538;53.150;18.160;2023-07-29T09:56:28;3.90;;;1.80;;
77453;SDS011;66538;53.150;18.160;2023-07-29T09:58:55;3.50;;;1.70;;
77453;SDS011;66538;53.150;18.160;2023-07-29T10:01:26;3.90;;;1.60;;
77453;SDS011;66538;53.150;18.160;2023-07-29T10:03:53;4.00;;;1.80;;
77453;SDS011;66538;53.150;18.160;2023-07-29T10:06:22;3.90;;;1.80;;
77453;SDS011;66538;53.150;18.160;2023-07-29T10:08:49;3.20;;;1.40;;
77453;SDS011;66538;53.150;18.160;2023-07-29T10:11:17;3.00;;;1.70;;
77453;SDS011;66538;53.150;18.160;2023-07-29T10:13:46;4.20;;;2.00;;
77453;SDS011;66538;53.150;18.160;2023-07-29T10:16:14;3.00;;;1.50;;
77453;SDS011;66538;53.150;18.160;2023-07-29T10:18:41;3.80;;;1.70;;
77453;SDS011;66538;53.150;18.160;2023-07-29T10:21:08;4.40;;;2.00;;
77453;SDS011;66538;53.150;18.160;2023-07-29T10:23:38;4.30;;;1.50;;
77453;SDS011;66538;53.150;18.160;2023-07-29T10:26:10;5.80;;;1.70;;
77453;SDS011;66538;53.150;18.160;2023-07-29T10:28:42;2.80;;;1.40;;
77453;SDS011;66538;53.150;18.160;2023-07-29T10:31:15;3.00;;;1.40;;
77453;SDS011;66538;53.150;18.160;2023-07-29T10:33:43;3.30;;;1.60;;
77453;SDS011;66538;53.150;18.160;2023-07-29T10:36:11;3.10;;;1.40;;
77453;SDS011;66538;53.150;18.160;2023-07-29T10:38:38;2.90;;;1.30;;
77453;SDS011;66538;53.150;18.160;2023-07-29T10:41:06;3.80;;;1.50;;
77453;SDS011;66538;53.150;18.160;2023-07-29T10:43:33;2.70;;;1.30;;
77453;SDS011;66538;53.150;18.160;2023-07-29T10:46:15;3.00;;;1.40;;
77453;SDS011;66538;53.150;18.160;2023-07-29T10:48:55;4.30;;;1.50;;
77453;SDS011;66538;53.150;18.160;2023-07-29T10:51:29;4.30;;;1.20;;
77453;SDS011;66538;53.150;18.160;2023-07-29T10:54:02;2.80;;;1.30;;
77453;SDS011;66538;53.150;18.160;2023-07-29T10:56:34;3.20;;;1.40;;
77453;SDS011;66538;53.150;18.160;2023-07-29T11:01:40;2.30;;;1.10;;
77453;SDS011;66538;53.150;18.160;2023-07-29T11:15:13;3.00;;;1.40;;
77453;SDS011;66538;53.150;18.160;2023-07-29T11:17:55;6.50;;;1.70;;
77453;SDS011;66538;53.150;18.160;2023-07-29T11:20:27;4.40;;;1.40;;
77453;SDS011;66538;53.150;18.160;2023-07-29T11:22:58;2.90;;;1.30;;
77453;SDS011;66538;53.150;18.160;2023-07-29T11:25:27;2.90;;;1.30;;
77453;SDS011;66538;53.150;18.160;2023-07-29T11:27:57;2.90;;;1.30;;
77453;SDS011;66538;53.150;18.160;2023-07-29T11:30:24;2.40;;;1.10;;
77453;SDS011;66538;53.150;18.160;2023-07-29T11:32:56;3.80;;;1.20;;
77453;SDS011;66538;53.150;18.160;2023-07-29T11:35:24;3.50;;;1.20;;
77453;SDS011;66538;53.150;18.160;2023-07-29T11:37:52;3.30;;;1.30;;
77453;SDS011;66538;53.150;18.160;2023-07-29T11:40:20;2.90;;;1.30;;
77453;SDS011;66538;53.150;18.160;2023-07-29T11:42:49;3.40;;;1.10;;
77453;SDS011;66538;53.150;18.160;2023-07-29T11:45:18;3.60;;;1.30;;
77453;SDS011;66538;53.150;18.160;2023-07-29T11:47:45;2.60;;;1.00;;
77453;SDS011;66538;53.150;18.160;2023-07-29T11:50:13;3.60;;;1.40;;
77453;SDS011;66538;53.150;18.160;2023-07-29T11:52:42;2.60;;;1.10;;
77453;SDS011;66538;53.150;18.160;2023-07-29T11:55:11;3.50;;;1.20;;
77453;SDS011;66538;53.150;18.160;2023-07-29T11:57:39;4.40;;;1.10;;
77453;SDS011;66538;53.150;18.160;2023-07-29T12:00:09;2.60;;;1.00;;
77453;SDS011;66538;53.150;18.160;2023-07-29T12:02:41;3.70;;;1.30;;
77453;SDS011;66538;53.150;18.160;2023-07-29T12:05:13;2.90;;;1.20;;
77453;SDS011;66538;53.150;18.160;2023-07-29T12:07:42;2.60;;;1.10;;
77453;SDS011;66538;53.150;18.160;2023-07-29T12:10:10;3.10;;;1.20;;
77453;SDS011;66538;53.150;18.160;2023-07-29T12:12:44;2.50;;;1.10;;
77453;SDS011;66538;53.150;18.160;2023-07-29T12:15:12;2.90;;;1.10;;
77453;SDS011;66538;53.150;18.160;2023-07-29T12:17:39;2.40;;;1.10;;
77453;SDS011;66538;53.150;18.160;2023-07-29T12:20:10;2.70;;;1.10;;
77453;SDS011;66538;53.150;18.160;2023-07-29T12:22:37;2.90;;;1.10;;
77453;SDS011;66538;53.150;18.160;2023-07-29T12:25:04;2.40;;;1.10;;
77453;SDS011;66538;53.150;18.160;2023-07-29T12:27:31;2.80;;;1.20;;
77453;SDS011;66538;53.150;18.160;2023-07-29T12:29:58;3.00;;;1.20;;
77453;SDS011;66538;53.150;18.160;2023-07-29T12:32:30;2.90;;;1.00;;
77453;SDS011;66538;53.150;18.160;2023-07-29T12:34:56;3.30;;;1.00;;
77453;SDS011;66538;53.150;18.160;2023-07-29T12:37:30;3.60;;;1.10;;
77453;SDS011;66538;53.150;18.160;2023-07-29T12:39:58;2.60;;;1.30;;
77453;SDS011;66538;53.150;18.160;2023-07-29T12:42:25;3.20;;;1.40;;
77453;SDS011;66538;53.150;18.160;2023-07-29T12:44:51;2.10;;;1.00;;
77453;SDS011;66538;53.150;18.160;2023-07-29T12:47:18;3.10;;;1.10;;
77453;SDS011;66538;53.150;18.160;2023-07-29T12:49:45;2.70;;;1.20;;
77453;SDS011;66538;53.150;18.160;2023-07-29T12:52:11;2.70;;;1.20;;
77453;SDS011;66538;53.150;18.160;2023-07-29T12:54:38;2.40;;;1.10;;
77453;SDS011;66538;53.150;18.160;2023-07-29T12:57:06;2.60;;;1.20;;
77453;SDS011;66538;53.150;18.160;2023-07-29T12:59:33;2.90;;;1.40;;
77453;SDS011;66538;53.150;18.160;2023-07-29T13:01:59;2.80;;;1.30;;
77453;SDS011;66538;53.150;18.160;2023-07-29T13:04:26;2.80;;;1.30;;
77453;SDS011;66538;53.150;18.160;2023-07-29T13:06:52;2.60;;;1.30;;
77453;SDS011;66538;53.150;18.160;2023-07-29T13:09:19;2.90;;;1.30;;
77453;SDS011;66538;53.150;18.160;2023-07-29T13:11:46;3.10;;;1.50;;
77453;SDS011;66538;53.150;18.160;2023-07-29T13:14:12;3.20;;;1.30;;
77453;SDS011;66538;53.150;18.160;2023-07-29T13:16:39;2.70;;;1.30;;
77453;SDS011;66538;53.150;18.160;2023-07-29T13:19:06;2.50;;;1.20;;
77453;SDS011;66538;53.150;18.160;2023-07-29T13:21:32;3.40;;;1.30;;
77453;SDS011;66538;53.150;18.160;2023-07-29T13:23:59;2.80;;;1.30;;
77453;SDS011;66538;53.150;18.160;2023-07-29T13:26:26;3.00;;;1.50;;
77453;SDS011;66538;53.150;18.160;2023-07-29T13:28:53;2.70;;;1.20;;
77453;SDS011;66538;53.150;18.160;2023-07-29T13:31:22;2.80;;;1.50;;
77453;SDS011;66538;53.150;18.160;2023-07-29T13:33:48;5.10;;;1.50;;
77453;SDS011;66538;53.150;18.160;2023-07-29T13:36:15;3.20;;;1.60;;
77453;SDS011;66538;53.150;18.160;2023-07-29T13:38:41;2.70;;;1.60;;
77453;SDS011;66538;53.150;18.160;2023-07-29T13:41:08;2.80;;;1.50;;
77453;SDS011;66538;53.150;18.160;2023-07-29T13:43:35;3.50;;;1.60;;
77453;SDS011;66538;53.150;18.160;2023-07-29T13:46:01;3.20;;;1.50;;
77453;SDS011;66538;53.150;18.160;2023-07-29T13:48:28;2.60;;;1.30;;
77453;SDS011;66538;53.150;18.160;2023-07-29T13:50:55;3.50;;;1.20;;
77453;SDS011;66538;53.150;18.160;2023-07-29T13:53:21;3.10;;;1.40;;
77453;SDS011;66538;53.150;18.160;2023-07-29T13:55:48;2.60;;;1.30;;
77453;SDS011;66538;53.150;18.160;2023-07-29T13:58:15;2.50;;;1.00;;
77453;SDS011;66538;53.150;18.160;2023-07-29T14:00:41;2.80;;;1.20;;
77453;SDS011;66538;53.150;18.160;2023-07-29T14:03:08;2.70;;;1.10;;
77453;SDS011;66538;53.150;18.160;2023-07-29T14:05:35;2.50;;;1.30;;
77453;SDS011;66538;53.150;18.160;2023-07-29T14:08:01;3.10;;;1.20;;
77453;SDS011;66538;53.150;18.160;2023-07-29T14:10:28;3.70;;;1.40;;
77453;SDS011;66538;53.150;18.160;2023-07-29T14:12:54;2.60;;;1.20;;
77453;SDS011;66538;53.150;18.160;2023-07-29T14:15:21;2.70;;;1.40;;
77453;SDS011;66538;53.150;18.160;2023-07-29T14:17:48;3.00;;;1.40;;
77453;SDS011;66538;53.150;18.160;2023-07-29T14:20:14;2.30;;;1.10;;
77453;SDS011;66538;53.150;18.160;2023-07-29T14:22:41;3.00;;;1.50;;
77453;SDS011;66538;53.150;18.160;2023-07-29T14:25:08;3.40;;;1.40;;
77453;SDS011;66538;53.150;18.160;2023-07-29T14:27:35;2.90;;;1.30;;
77453;SDS011;66538;53.150;18.160;2023-07-29T14:30:01;2.50;;;1.30;;
77453;SDS011;66538;53.150;18.160;2023-07-29T14:32:29;3.00;;;1.00;;
77453;SDS011;66538;53.150;18.160;2023-07-29T14:34:55;3.20;;;1.30;;
77453;SDS011;66538;53.150;18.160;2023-07-29T14:37:22;3.30;;;1.20;;
77453;SDS011;66538;53.150;18.160;2023-07-29T14:39:49;2.90;;;1.20;;
77453;SDS011;66538;53.150;18.160;2023-07-29T14:42:15;3.10;;;1.30;;
77453;SDS011;66538;53.150;18.160;2023-07-29T14:44:42;2.70;;;1.40;;
77453;SDS011;66538;53.150;18.160;2023-07-29T14:47:08;2.50;;;1.20;;
77453;SDS011;66538;53.150;18.160;2023-07-29T14:49:35;3.20;;;1.60;;
77453;SDS011;66538;53.150;18.160;2023-07-29T14:52:01;4.10;;;2.10;;